Baileys Harbor, Wisconsin
Current Conditions -  °F | °C
As of 6:35 PM on Thursday 27 Nov 2014 (Local Time) from KSUE Reporting Station
Clear Clear  
Wind Chill:   Ceiling: Unl
Heat Index: 16°   Visibility: 10mi
Dew Point:   Wind: 9mph
Humidity: 53%   Direction: 320°NW
Pressure: 30.35"   Gusts: NA
Location:  45.07°N, 87.13°W
Report Text: KSUE 280035Z AUTO 32008KT 10SM CLR M09/M17 A3035 RMK AO1
Loading
Personal Weather Stations






























Interactive Weather Map New forecast layout! Learn more

10-Day Weather Forecast

Advertisements
Track Severe Weather on mobile